Maersk Nimes — VRFO7 — position and weather

sailwx.info

Track history (hours):
 
Tides and Currents Weather Stations Pressure Air Temp Water Temp Dewpoint Dewpoint Depression Visibility Wind Speed Wind Dir Waves Ship Positions

Maersk Nimes

Last reported at 2017-Jan-17 02:33 UTC. Time now 2017-Jan-17 02:56 UTC.
Position N 59°44' E 024°03'.

Length 210 m; draft 10.4 m.

Type: Cargo ship. MMSI: 477559200.

Date/timePositionNaut miles runAvg speedWind from/ knotsBaromVisibWave heightAir tempDewpointWater temp
2017-Jan-17 02:33N 59°44' E 024°03'7512.5
2017-Jan-16 20:32N 60°01' E 026°29'1212.1
2017-Jan-16 19:33N 59°60' E 026°53'1211.8
2017-Jan-16 18:33N 60°03' E 027°16'1212.4
2017-Jan-16 17:33N 60°09' E 027°37'1211.8
2017-Jan-16 16:33N 60°10' E 028°01'1312.8
2017-Jan-16 15:33N 60°05' E 028°24'1211.5
2017-Jan-16 14:33N 60°03' E 028°47'1212.3
2017-Jan-16 13:33N 60°02' E 029°12'18 9.0
2017-Jan-16 11:31N 59°58' E 029°47'10 9.9
2017-Jan-16 10:33N 59°54' E 030°05'4 3.5
2017-Jan-16 09:28N 59°53' E 030°12'0 0.0
2017-Jan-16 08:31N 59°53' E 030°12'0 0.0
2017-Jan-16 07:31N 59°53' E 030°12'0 0.0
2017-Jan-16 06:31N 59°53' E 030°12'0 0.0
2017-Jan-16 05:31N 59°53' E 030°12'0 0.0
2017-Jan-16 04:31N 59°53' E 030°12'0 0.0
2017-Jan-16 03:31N 59°53' E 030°12'0 0.0
2017-Jan-16 02:31N 59°53' E 030°12'0 0.0
2017-Jan-16 01:31N 59°53' E 030°12'0 0.0
2017-Jan-16 00:31N 59°53' E 030°12'0 0.0
2017-Jan-15 23:31N 59°53' E 030°12'0 0.0
2017-Jan-15 22:31N 59°53' E 030°12'0 0.0
2017-Jan-15 21:31N 59°53' E 030°12'0 0.0
2017-Jan-15 20:31N 59°53' E 030°12'0 0.0
2017-Jan-15 19:31N 59°53' E 030°12'0 0.0
2017-Jan-15 18:31N 59°53' E 030°12'0 0.0
2017-Jan-15 17:31N 59°53' E 030°12'0 0.0
2017-Jan-15 16:31N 59°53' E 030°12'0 0.0
2017-Jan-15 15:31N 59°53' E 030°12'0 0.0
2017-Jan-15 14:28N 59°53' E 030°12'0 0.0
2017-Jan-15 13:33N 59°53' E 030°12'0 0.2
2017-Jan-15 12:33N 59°53' E 030°11'1 1.0
2017-Jan-15 11:33N 59°53' E 030°13'0 0.2
2017-Jan-15 10:33N 59°54' E 030°14'0 0.0
2017-Jan-15 09:33N 59°54' E 030°14'0 0.0
2017-Jan-15 08:33N 59°54' E 030°14'0 0.0
2017-Jan-15 07:33N 59°54' E 030°14'0 0.0
2017-Jan-15 06:27N 59°54' E 030°14'0 0.0
2017-Jan-15 05:33N 59°54' E 030°14'0 0.0
2017-Jan-15 04:33N 59°54' E 030°14'0 0.0
2017-Jan-15 03:33N 59°54' E 030°14'0 0.0
2017-Jan-15 02:33N 59°54' E 030°14'0 0.0
2017-Jan-15 01:33N 59°54' E 030°14'0 0.0
2017-Jan-15 00:33N 59°54' E 030°14'0 0.0
2017-Jan-14 23:33N 59°54' E 030°14'0 0.0
2017-Jan-14 22:33N 59°54' E 030°14'0 0.0
2017-Jan-14 21:33N 59°54' E 030°14'0 0.0
2017-Jan-14 20:30N 59°54' E 030°14'0 0.0
2017-Jan-14 19:33N 59°54' E 030°14'0 0.0
2017-Jan-14 18:33N 59°54' E 030°14'0 0.0
2017-Jan-14 17:33N 59°54' E 030°14'4 3.7
2017-Jan-14 16:33N 59°54' E 030°06'1111.3
2017-Jan-14 15:33N 59°59' E 029°46'8 7.8
2017-Jan-14 14:33N 60°01' E 029°31'3 2.3
2017-Jan-14 13:09N 60°01' E 029°25'6 3.2
2017-Jan-14 11:24N 60°02' E 029°13'1113.2
2017-Jan-14 10:33N 60°02' E 028°51'1615.8
2017-Jan-14 09:33N 60°05' E 028°20'1717.2
2017-Jan-14 08:33N 60°10' E 027°47'1817.8
2017-Jan-14 07:33N 60°02' E 027°16'1616.4
2017-Jan-14 06:34N 59°60' E 026°43'1717.2
2017-Jan-14 05:34N 59°55' E 026°11'10517.5
2017-Jan-13 23:33N 59°27' E 022°50'33816.6
2017-Jan-13 03:07N 55°34' E 015°14'1017.6
2017-Jan-13 02:34N 55°30' E 014°58'1817.6
2017-Jan-13 01:33N 55°20' E 014°32'1717.4
2017-Jan-13 00:33N 55°06' E 014°14'1817.5
2017-Jan-12 23:33N 54°57' E 013°47'2317.9
2017-Jan-12 22:17N 54°49' E 013°10'1318.4
2017-Jan-12 21:34N 54°45' E 012°48'3215.9
2017-Jan-12 19:33N 54°25' E 012°05'1818.3
2017-Jan-12 18:33N 54°28' E 011°35'1919.4
2017-Jan-12 17:33N 54°35' E 011°04'1514.7
2017-Jan-12 16:33N 54°48' E 010°50'1918.9
2017-Jan-12 15:33N 55°06' E 010°59'1816.5
2017-Jan-12 14:30N 55°23' E 011°01'9815.8
2017-Jan-12 08:16N 56°58' E 011°44'1318.4
2017-Jan-12 07:33N 57°11' E 011°35'1918.8
2017-Jan-12 06:33N 57°28' E 011°23'1918.9
2017-Jan-12 05:33N 57°41' E 010°56'1312.5
2017-Jan-12 04:32N 57°48' E 010°36'15914.5
2017-Jan-11 17:33N 56°04' E 006°55'1110.9
2017-Jan-11 16:32N 55°53' E 006°49'10 9.7
2017-Jan-11 15:33N 55°44' E 006°46'1210.7
2017-Jan-11 14:28N 55°32' E 006°43'1211.8
2017-Jan-11 13:28N 55°21' E 006°40'1010.2
2017-Jan-11 12:31N 55°11' E 006°40'1212.1
2017-Jan-11 11:33N 55°00' E 006°48'1313.1
2017-Jan-11 10:33N 54°48' E 006°58'1413.8
2017-Jan-11 09:34N 54°36' E 007°07'4811.3
2017-Jan-11 05:20N 53°53' E 007°45'1012.4
2017-Jan-11 04:33N 53°51' E 008°01'1515.4
2017-Jan-11 03:33N 53°41' E 008°21'8 8.2
2017-Jan-11 02:32N 53°35' E 008°31'0 0.0
2017-Jan-11 01:32N 53°35' E 008°31'0 0.0
2017-Jan-11 00:32N 53°35' E 008°31'0 0.0
2017-Jan-10 23:32N 53°35' E 008°31'0 0.0
2017-Jan-10 22:29N 53°35' E 008°31'0 0.0
2017-Jan-10 21:32N 53°35' E 008°31'0 0.0
2017-Jan-10 20:32N 53°35' E 008°31'0 0.0
2017-Jan-10 19:32N 53°35' E 008°31'0 0.0
2017-Jan-10 18:32N 53°35' E 008°31'0 0.0
2017-Jan-10 17:32N 53°35' E 008°31'0 0.0
2017-Jan-10 16:32N 53°35' E 008°31'0 0.0
2017-Jan-10 15:32N 53°35' E 008°31'0 0.0
2017-Jan-10 14:32N 53°35' E 008°31'0 0.0
2017-Jan-10 13:34N 53°35' E 008°31'0 0.0
2017-Jan-10 09:32N 53°35' E 008°31'0 0.0
2017-Jan-10 08:32N 53°35' E 008°31'0 0.0
2017-Jan-10 07:32N 53°35' E 008°31'0 0.0
2017-Jan-10 06:32N 53°35' E 008°31'0 0.0
2017-Jan-10 05:32N 53°35' E 008°31'0 0.0
2017-Jan-10 04:32N 53°35' E 008°31'2 1.9
2017-Jan-10 03:33N 53°37' E 008°29'1313.1
2017-Jan-10 02:33N 53°45' E 008°12'1413.9
2017-Jan-10 01:32N 53°53' E 007°52'2 2.4
2017-Jan-10 00:33N 53°55' E 007°51'0 0.0
2017-Jan-09 23:30N 53°55' E 007°51'0 0.0
2017-Jan-09 22:33N 53°55' E 007°51'0 0.0
2017-Jan-09 21:33N 53°55' E 007°51'0 0.0
2017-Jan-09 20:30N 53°55' E 007°51'0 0.1
2017-Jan-09 19:33N 53°55' E 007°51'8 8.5
2017-Jan-09 18:33N 54°00' E 008°02'1212.1
2017-Jan-09 17:33N 53°59' E 008°23'1313.3
2017-Jan-09 16:33N 53°53' E 008°42'1515.4
2017-Jan-09 15:34N 53°53' E 009°09'1212.2
2017-Jan-09 14:34N 53°45' E 009°25'1313.0
2017-Jan-09 13:33N 53°35' E 009°38'1010.4
2017-Jan-09 12:34N 53°33' E 009°55'3 2.9
2017-Jan-09 11:31N 53°32' E 009°60'0 0.0
2017-Jan-09 10:31N 53°32' E 009°60'0 0.0
2017-Jan-09 09:31N 53°32' E 009°60'0 0.0
2017-Jan-09 08:31N 53°32' E 009°60'0 0.0
2017-Jan-09 07:31N 53°32' E 009°60'0 0.0
2017-Jan-09 06:31N 53°32' E 009°60'0 0.0
2017-Jan-09 05:31N 53°32' E 009°60'0 0.0
2017-Jan-09 04:31N 53°32' E 009°60'0 0.0
2017-Jan-09 03:31N 53°32' E 009°60'0 0.0
2017-Jan-09 02:31N 53°32' E 009°60'0 0.0
2017-Jan-09 01:31N 53°32' E 009°60'0 0.0
2017-Jan-09 00:31N 53°32' E 009°60'0 0.0
2017-Jan-08 23:31N 53°32' E 009°60'0 0.0
2017-Jan-08 22:31N 53°32' E 009°60'0 0.0
2017-Jan-08 21:33N 53°32' E 009°60'4 4.5
2017-Jan-08 20:33N 53°33' E 009°52'1212.4
2017-Jan-08 19:33N 53°37' E 009°33'1313.2
2017-Jan-08 18:34N 53°49' E 009°22'1110.6
2017-Jan-08 17:34N 53°52' E 009°05'1313.4
2017-Jan-08 16:33N 53°53' E 008°43'1515.2
2017-Jan-08 15:33N 53°59' E 008°19'6 5.9
2017-Jan-08 14:33N 54°00' E 008°10'5 4.5
2017-Jan-08 13:33N 53°59' E 008°02'1414.1
2017-Jan-08 12:33N 53°56' E 007°39'1816.5
2017-Jan-08 11:27N 53°52' E 007°09'4716.1
2017-Jan-08 08:33N 53°40' E 005°53'1616.0
2017-Jan-08 07:32N 53°34' E 005°27'1816.1
2017-Jan-08 06:26N 53°28' E 004°59'1915.3
2017-Jan-08 05:10N 53°15' E 004°35'1015.9
2017-Jan-08 04:34N 53°06' E 004°26'1615.6
2017-Jan-08 03:33N 52°52' E 004°16'1615.8
2017-Jan-08 02:34N 52°39' E 004°01'1616.1
2017-Jan-08 01:33N 52°24' E 003°53'1616.5
2017-Jan-08 00:34N 52°08' E 003°55'9 9.4
2017-Jan-07 23:33N 51°60' E 004°03'1 1.4
2017-Jan-07 22:33N 51°58' E 004°01'1 1.2
2017-Jan-07 21:34N 51°57' E 004°00'0 0.0
2017-Jan-07 20:33N 51°57' E 004°00'0 0.0
2017-Jan-07 19:30N 51°57' E 004°00'0 0.0
2017-Jan-07 18:34N 51°57' E 004°00'0 0.0
2017-Jan-07 17:33N 51°57' E 004°00'0 0.0
2017-Jan-07 16:33N 51°57' E 004°00'0 0.0
2017-Jan-07 15:33N 51°57' E 004°00'0 0.0
2017-Jan-07 14:33N 51°57' E 004°00'0 0.0
2017-Jan-07 13:34N 51°57' E 004°00'0 0.0
2017-Jan-07 12:34N 51°57' E 004°00'0 0.0
2017-Jan-07 11:34N 51°57' E 004°00'0 0.0
2017-Jan-07 10:34N 51°57' E 004°00'0 0.0
2017-Jan-07 09:33N 51°57' E 004°00'0 0.0
2017-Jan-07 08:31N 51°57' E 004°00'0 0.0
2017-Jan-07 07:34N 51°57' E 004°00'0 0.0
2017-Jan-07 06:33N 51°57' E 004°00'0 0.0
2017-Jan-07 05:34N 51°57' E 004°00'0 0.0
2017-Jan-07 04:33N 51°57' E 004°00'0 0.0
2017-Jan-07 03:34N 51°57' E 004°00'0 0.0
2017-Jan-07 02:33N 51°57' E 004°00'  
Track history (hours):
 
Tides and Currents Weather Stations Pressure Air Temp Water Temp Dewpoint Dewpoint Depression Visibility Wind Speed Wind Dir Waves Ship Positions

Maersk Nimes

Last reported at 2017-Jan-17 02:33 UTC. Time now 2017-Jan-17 02:56 UTC.
Position N 59°44' E 024°03'.

Length 210 m; draft 10.4 m.

Type: Cargo ship. MMSI: 477559200.

Date/timePositionNaut miles runAvg speedWind from/ knotsBaromVisibWave heightAir tempDewpointWater temp
2017-Jan-17 02:33N 59°44' E 024°03'7512.5
2017-Jan-16 20:32N 60°01' E 026°29'1212.1
2017-Jan-16 19:33N 59°60' E 026°53'1211.8
2017-Jan-16 18:33N 60°03' E 027°16'1212.4
2017-Jan-16 17:33N 60°09' E 027°37'1211.8
2017-Jan-16 16:33N 60°10' E 028°01'1312.8
2017-Jan-16 15:33N 60°05' E 028°24'1211.5
2017-Jan-16 14:33N 60°03' E 028°47'1212.3
2017-Jan-16 13:33N 60°02' E 029°12'18 9.0
2017-Jan-16 11:31N 59°58' E 029°47'10 9.9
2017-Jan-16 10:33N 59°54' E 030°05'4 3.5
2017-Jan-16 09:28N 59°53' E 030°12'0 0.0
2017-Jan-16 08:31N 59°53' E 030°12'0 0.0
2017-Jan-16 07:31N 59°53' E 030°12'0 0.0
2017-Jan-16 06:31N 59°53' E 030°12'0 0.0
2017-Jan-16 05:31N 59°53' E 030°12'0 0.0
2017-Jan-16 04:31N 59°53' E 030°12'0 0.0
2017-Jan-16 03:31N 59°53' E 030°12'0 0.0
2017-Jan-16 02:31N 59°53' E 030°12'0 0.0
2017-Jan-16 01:31N 59°53' E 030°12'0 0.0
2017-Jan-16 00:31N 59°53' E 030°12'0 0.0
2017-Jan-15 23:31N 59°53' E 030°12'0 0.0
2017-Jan-15 22:31N 59°53' E 030°12'0 0.0
2017-Jan-15 21:31N 59°53' E 030°12'0 0.0
2017-Jan-15 20:31N 59°53' E 030°12'0 0.0
2017-Jan-15 19:31N 59°53' E 030°12'0 0.0
2017-Jan-15 18:31N 59°53' E 030°12'0 0.0
2017-Jan-15 17:31N 59°53' E 030°12'0 0.0
2017-Jan-15 16:31N 59°53' E 030°12'0 0.0
2017-Jan-15 15:31N 59°53' E 030°12'0 0.0
2017-Jan-15 14:28N 59°53' E 030°12'0 0.0
2017-Jan-15 13:33N 59°53' E 030°12'0 0.2
2017-Jan-15 12:33N 59°53' E 030°11'1 1.0
2017-Jan-15 11:33N 59°53' E 030°13'0 0.2
2017-Jan-15 10:33N 59°54' E 030°14'0 0.0
2017-Jan-15 09:33N 59°54' E 030°14'0 0.0
2017-Jan-15 08:33N 59°54' E 030°14'0 0.0
2017-Jan-15 07:33N 59°54' E 030°14'0 0.0
2017-Jan-15 06:27N 59°54' E 030°14'0 0.0
2017-Jan-15 05:33N 59°54' E 030°14'0 0.0
2017-Jan-15 04:33N 59°54' E 030°14'0 0.0
2017-Jan-15 03:33N 59°54' E 030°14'0 0.0
2017-Jan-15 02:33N 59°54' E 030°14'0 0.0
2017-Jan-15 01:33N 59°54' E 030°14'0 0.0
2017-Jan-15 00:33N 59°54' E 030°14'0 0.0
2017-Jan-14 23:33N 59°54' E 030°14'0 0.0
2017-Jan-14 22:33N 59°54' E 030°14'0 0.0
2017-Jan-14 21:33N 59°54' E 030°14'0 0.0
2017-Jan-14 20:30N 59°54' E 030°14'0 0.0
2017-Jan-14 19:33N 59°54' E 030°14'0 0.0
2017-Jan-14 18:33N 59°54' E 030°14'0 0.0
2017-Jan-14 17:33N 59°54' E 030°14'4 3.7
2017-Jan-14 16:33N 59°54' E 030°06'1111.3
2017-Jan-14 15:33N 59°59' E 029°46'8 7.8
2017-Jan-14 14:33N 60°01' E 029°31'3 2.3
2017-Jan-14 13:09N 60°01' E 029°25'6 3.2
2017-Jan-14 11:24N 60°02' E 029°13'1113.2
2017-Jan-14 10:33N 60°02' E 028°51'1615.8
2017-Jan-14 09:33N 60°05' E 028°20'1717.2
2017-Jan-14 08:33N 60°10' E 027°47'1817.8
2017-Jan-14 07:33N 60°02' E 027°16'1616.4
2017-Jan-14 06:34N 59°60' E 026°43'1717.2
2017-Jan-14 05:34N 59°55' E 026°11'10517.5
2017-Jan-13 23:33N 59°27' E 022°50'33816.6
2017-Jan-13 03:07N 55°34' E 015°14'1017.6
2017-Jan-13 02:34N 55°30' E 014°58'1817.6
2017-Jan-13 01:33N 55°20' E 014°32'1717.4
2017-Jan-13 00:33N 55°06' E 014°14'1817.5
2017-Jan-12 23:33N 54°57' E 013°47'2317.9
2017-Jan-12 22:17N 54°49' E 013°10'1318.4
2017-Jan-12 21:34N 54°45' E 012°48'3215.9
2017-Jan-12 19:33N 54°25' E 012°05'1818.3
2017-Jan-12 18:33N 54°28' E 011°35'1919.4
2017-Jan-12 17:33N 54°35' E 011°04'1514.7
2017-Jan-12 16:33N 54°48' E 010°50'1918.9
2017-Jan-12 15:33N 55°06' E 010°59'1816.5
2017-Jan-12 14:30N 55°23' E 011°01'9815.8
2017-Jan-12 08:16N 56°58' E 011°44'1318.4
2017-Jan-12 07:33N 57°11' E 011°35'1918.8
2017-Jan-12 06:33N 57°28' E 011°23'1918.9
2017-Jan-12 05:33N 57°41' E 010°56'1312.5
2017-Jan-12 04:32N 57°48' E 010°36'15914.5
2017-Jan-11 17:33N 56°04' E 006°55'1110.9
2017-Jan-11 16:32N 55°53' E 006°49'10 9.7
2017-Jan-11 15:33N 55°44' E 006°46'1210.7
2017-Jan-11 14:28N 55°32' E 006°43'1211.8
2017-Jan-11 13:28N 55°21' E 006°40'1010.2
2017-Jan-11 12:31N 55°11' E 006°40'1212.1
2017-Jan-11 11:33N 55°00' E 006°48'1313.1
2017-Jan-11 10:33N 54°48' E 006°58'1413.8
2017-Jan-11 09:34N 54°36' E 007°07'4811.3
2017-Jan-11 05:20N 53°53' E 007°45'1012.4
2017-Jan-11 04:33N 53°51' E 008°01'1515.4
2017-Jan-11 03:33N 53°41' E 008°21'8 8.2
2017-Jan-11 02:32N 53°35' E 008°31'0 0.0
2017-Jan-11 01:32N 53°35' E 008°31'0 0.0
2017-Jan-11 00:32N 53°35' E 008°31'0 0.0
2017-Jan-10 23:32N 53°35' E 008°31'0 0.0
2017-Jan-10 22:29N 53°35' E 008°31'0 0.0
2017-Jan-10 21:32N 53°35' E 008°31'0 0.0
2017-Jan-10 20:32N 53°35' E 008°31'0 0.0
2017-Jan-10 19:32N 53°35' E 008°31'0 0.0
2017-Jan-10 18:32N 53°35' E 008°31'0 0.0
2017-Jan-10 17:32N 53°35' E 008°31'0 0.0
2017-Jan-10 16:32N 53°35' E 008°31'0 0.0
2017-Jan-10 15:32N 53°35' E 008°31'0 0.0
2017-Jan-10 14:32N 53°35' E 008°31'0 0.0
2017-Jan-10 13:34N 53°35' E 008°31'0 0.0
2017-Jan-10 09:32N 53°35' E 008°31'0 0.0
2017-Jan-10 08:32N 53°35' E 008°31'0 0.0
2017-Jan-10 07:32N 53°35' E 008°31'0 0.0
2017-Jan-10 06:32N 53°35' E 008°31'0 0.0
2017-Jan-10 05:32N 53°35' E 008°31'0 0.0
2017-Jan-10 04:32N 53°35' E 008°31'2 1.9
2017-Jan-10 03:33N 53°37' E 008°29'1313.1
2017-Jan-10 02:33N 53°45' E 008°12'1413.9
2017-Jan-10 01:32N 53°53' E 007°52'2 2.4
2017-Jan-10 00:33N 53°55' E 007°51'0 0.0
2017-Jan-09 23:30N 53°55' E 007°51'0 0.0
2017-Jan-09 22:33N 53°55' E 007°51'0 0.0
2017-Jan-09 21:33N 53°55' E 007°51'0 0.0
2017-Jan-09 20:30N 53°55' E 007°51'0 0.1
2017-Jan-09 19:33N 53°55' E 007°51'8 8.5
2017-Jan-09 18:33N 54°00' E 008°02'1212.1
2017-Jan-09 17:33N 53°59' E 008°23'1313.3
2017-Jan-09 16:33N 53°53' E 008°42'1515.4
2017-Jan-09 15:34N 53°53' E 009°09'1212.2
2017-Jan-09 14:34N 53°45' E 009°25'1313.0
2017-Jan-09 13:33N 53°35' E 009°38'1010.4
2017-Jan-09 12:34N 53°33' E 009°55'3 2.9
2017-Jan-09 11:31N 53°32' E 009°60'0 0.0
2017-Jan-09 10:31N 53°32' E 009°60'0 0.0
2017-Jan-09 09:31N 53°32' E 009°60'0 0.0
2017-Jan-09 08:31N 53°32' E 009°60'0 0.0
2017-Jan-09 07:31N 53°32' E 009°60'0 0.0
2017-Jan-09 06:31N 53°32' E 009°60'0 0.0
2017-Jan-09 05:31N 53°32' E 009°60'0 0.0
2017-Jan-09 04:31N 53°32' E 009°60'0 0.0
2017-Jan-09 03:31N 53°32' E 009°60'0 0.0
2017-Jan-09 02:31N 53°32' E 009°60'0 0.0
2017-Jan-09 01:31N 53°32' E 009°60'0 0.0
2017-Jan-09 00:31N 53°32' E 009°60'0 0.0
2017-Jan-08 23:31N 53°32' E 009°60'0 0.0
2017-Jan-08 22:31N 53°32' E 009°60'0 0.0
2017-Jan-08 21:33N 53°32' E 009°60'4 4.5
2017-Jan-08 20:33N 53°33' E 009°52'1212.4
2017-Jan-08 19:33N 53°37' E 009°33'1313.2
2017-Jan-08 18:34N 53°49' E 009°22'1110.6
2017-Jan-08 17:34N 53°52' E 009°05'1313.4
2017-Jan-08 16:33N 53°53' E 008°43'1515.2
2017-Jan-08 15:33N 53°59' E 008°19'6 5.9
2017-Jan-08 14:33N 54°00' E 008°10'5 4.5
2017-Jan-08 13:33N 53°59' E 008°02'1414.1
2017-Jan-08 12:33N 53°56' E 007°39'1816.5
2017-Jan-08 11:27N 53°52' E 007°09'4716.1
2017-Jan-08 08:33N 53°40' E 005°53'1616.0
2017-Jan-08 07:32N 53°34' E 005°27'1816.1
2017-Jan-08 06:26N 53°28' E 004°59'1915.3
2017-Jan-08 05:10N 53°15' E 004°35'1015.9
2017-Jan-08 04:34N 53°06' E 004°26'1615.6
2017-Jan-08 03:33N 52°52' E 004°16'1615.8
2017-Jan-08 02:34N 52°39' E 004°01'1616.1
2017-Jan-08 01:33N 52°24' E 003°53'1616.5
2017-Jan-08 00:34N 52°08' E 003°55'9 9.4
2017-Jan-07 23:33N 51°60' E 004°03'1 1.4
2017-Jan-07 22:33N 51°58' E 004°01'1 1.2
2017-Jan-07 21:34N 51°57' E 004°00'0 0.0
2017-Jan-07 20:33N 51°57' E 004°00'0 0.0
2017-Jan-07 19:30N 51°57' E 004°00'0 0.0
2017-Jan-07 18:34N 51°57' E 004°00'0 0.0
2017-Jan-07 17:33N 51°57' E 004°00'0 0.0
2017-Jan-07 16:33N 51°57' E 004°00'0 0.0
2017-Jan-07 15:33N 51°57' E 004°00'0 0.0
2017-Jan-07 14:33N 51°57' E 004°00'0 0.0
2017-Jan-07 13:34N 51°57' E 004°00'0 0.0
2017-Jan-07 12:34N 51°57' E 004°00'0 0.0
2017-Jan-07 11:34N 51°57' E 004°00'0 0.0
2017-Jan-07 10:34N 51°57' E 004°00'0 0.0
2017-Jan-07 09:33N 51°57' E 004°00'0 0.0
2017-Jan-07 08:31N 51°57' E 004°00'0 0.0
2017-Jan-07 07:34N 51°57' E 004°00'0 0.0
2017-Jan-07 06:33N 51°57' E 004°00'0 0.0
2017-Jan-07 05:34N 51°57' E 004°00'0 0.0
2017-Jan-07 04:33N 51°57' E 004°00'0 0.0
2017-Jan-07 03:34N 51°57' E 004°00'0 0.0
2017-Jan-07 02:33N 51°57' E 004°00'  

Dump ship's entire track history